Tiempo atmosférico en la estación meteorológica de Bailo, Huesca (722 m.)

Fecha
DESCASC
Temp. máxima en grados centígrados (hora)
DESCASC
Temp. mínima en grados centígrados (hora)
DESCASC
Temp. media en grados centígrados
DESCASC
Racha de viento máxima en m/sg (hora)
DESCASC
Velocidad máxima media en intervalos de 10 minutos(hora)
DESCASC
Precipitaciones diarias en mm
DESCASC
Precipitaciones de 00:00 a 06:00 en mm
DESCASC
Precipitaciones de 06:00 a 12:00 en mm
DESCASC
Precipitaciones de 12:00 a 18:00 en mm
DESCASC
Precipitaciones de 18:00 a 24:00 en mm
DESCASC
19-10-2017 16.8 (17:00) 9.2 (08:20) 13 7.5 (18:20) 5.28 (18:20) 0.8 0.8 0 0 0
18-10-2017 16.9 (00:00) 11.6 (22:00) 14.3 13.06 (00:40) 8.33 (13:50) 31.9 4.6 4.4 12.5 10.4
17-10-2017 22.1 (14:40) 12.2 (08:30) 17.2 13.33 (16:10) 9.17 (11:50) 0 0 0 0 0
16-10-2017 24.5 (16:10) 14.3 (04:20) 19.4 10 (11:50) 6.94 (11:50) 0 0 0 0 0
15-10-2017 24.1 (16:00) 13.8 (00:00) 19 9.44 (18:30) 7.22 (18:30) 0 0 0 0 0
14-10-2017 24.8 (16:30) 11.4 (00:00) 18.1 10.28 (15:40) 7.22 (18:10) 0 0 0 0 0
13-10-2017 27.8 (16:10) 9.8 (00:00) 18.8 6.67 (22:30) 3.89 (21:40) 0 0 0 0 0
12-10-2017 25.8 (15:50) 8.9 (00:00) 17.3 5.56 (16:00) 3.89 (19:30) 0 0 0 0 0
11-10-2017 26.1 (16:10) 8.8 (00:00) 17.5 7.78 (12:50) 4.44 (12:50) 0 0 0 0 0
10-10-2017 24.4 (17:20) 6.1 (00:00) 15.2 4.44 (15:00) 2.78 (17:30) 0 0 0 0 0
09-10-2017 24.1 (16:20) 6.4 (00:00) 15.3 9.72 (17:50) 7.22 (17:40) 0 0 0 0 0
08-10-2017 24.3 (16:20) 6 (00:00) 15.1 8.61 (17:10) 6.94 (17:10) 0 0 0 0 0
07-10-2017 23.1 (17:40) 4.7 (00:00) 13.9 6.67 (18:20) 5.28 (18:20) 0 0 0 0 0
06-10-2017 21.5 (15:00) 10.7 (00:00) 16.1 14.72 (14:40) 10.83 (17:40) 0 0 0 0 0
05-10-2017 26.6 (15:40) 11 (00:00) 18.8 12.5 (18:20) 8.89 (17:30) 0 0 0 0 0
04-10-2017 25.4 (18:00) 12 (00:00) 18.7 6.94 (07:20) 5 (07:20) 0 0 0 0 0
03-10-2017 25.3 (16:30) 10.9 (00:00) 18.1 7.78 (16:10) 5 (15:00) 0 0 0 0 0
02-10-2017 24.9 (17:40) 15.1 (00:00) 20 10.83 (13:50) 7.5 (14:00) 0 0 0 0 0
01-10-2017 18.9 (16:30) 11.2 (00:00) 15 12.78 (17:40) 9.17 (17:50) 0 0 0 0 0
30-09-2017 19.3 (16:10) 13.3 (00:00) 16.3 6.39 (13:30) 3.89 (18:20) 2.2 0 2 0.2 0
29-09-2017 26.6 (17:00) 11.3 (00:00) 19 8.33 (16:20) 4.44 (17:40) 0 0 0 0 0
28-09-2017 25.5 (16:10) 11.2 (00:00) 18.3 9.17 (11:30) 5.28 (21:20) 0 0 0 0 0
27-09-2017 24.2 (17:00) 9.7 (00:00) 17 7.5 (13:20) 4.72 (11:10) 0 0 0 0 0
26-09-2017 22.5 (17:30) 9.5 (00:00) 16 6.94 (00:10) 3.61 (00:10) 0 0 0 0 0
25-09-2017 22.5 (15:20) 13.3 (00:00) 17.9 13.89 (17:50) 9.72 (18:20) 0 0 0 0 0
24-09-2017 26.8 (17:00) 10.7 (00:00) 18.7 6.11 (16:50) 3.61 (16:50) 0 0 0 0 0
23-09-2017 24.4 (18:30) 7.8 (00:00) 16.1 9.72 (12:30) 6.11 (11:50) 0 0 0 0 0
22-09-2017 17.3 (17:40) 11.4 (00:00) 14.3 11.67 (14:00) 7.5 (14:00) 16.8 0.2 8.4 8 0.2
21-09-2017 26.6 (17:10) 8 (00:00) 17.3 5.56 (15:40) 3.06 (11:50) 0 0 0 0 0
20-09-2017 23.9 (18:00) 4.3 (00:00) 14.1 7.22 (16:20) 4.72 (16:20) 0 0 0 0 0

Gráficas

Temp. máximas Temp. mínimas Temp. medias Precipitaciones Rachas de viento máximas Velocidades máximas media en intervalos de 10 minutos

Datos horarios

Fecha y hora oficial Temperatura (ºC) Velocidad del viento (km/h) Dirección del viento Racha (km/h) Dirección de racha Precipitación (mm) Presión (hPa) Tendencia (hPa) Humedad (%)
2017-10-19 23:00:00 10.9 5 Sudoeste 8 Sudoeste 0 -- -- 87
2017-10-19 22:00:00 10.9 3 Sur 9 Este 0 -- -- 87
2017-10-19 21:00:00 12 5 Nordeste 11 Noroeste 0 -- -- 82
2017-10-19 20:00:00 12.4 6 Oeste 23 Oeste 0 -- -- 80
2017-10-19 19:00:00 14.3 15 Oeste 27 Noroeste 0 -- -- 74
2017-10-19 18:00:00 16.6 11 Noroeste 16 Norte 0 -- -- 65
2017-10-19 17:00:00 16.8 5 Oeste 11 Sur 0 -- -- 65
2017-10-19 16:00:00 15.2 9 Este 15 Este 0 -- -- 73
2017-10-19 15:00:00 14.9 3 Nordeste 15 Noroeste 0 -- -- 73
2017-10-19 14:00:00 14.5 6 Noroeste 14 Nordeste 0 -- -- 78
2017-10-19 13:00:00 13.4 10 Noroeste 14 Noroeste 0 -- -- 86
2017-10-19 12:00:00 12.8 4 Noroeste 9 Este 0 -- -- 87
2017-10-19 11:00:00 12.7 5 Este 8 Este 0 -- -- 87
2017-10-19 10:00:00 10.3 2 Sudoeste 6 Sudoeste 0 -- -- 97
2017-10-19 09:00:00 9.5 0 Calma 10 Sudoeste 0 -- -- 97
2017-10-19 08:00:00 9.3 5 Noroeste 10 Noroeste 0 -- -- 96
2017-10-19 07:00:00 9.5 0 Calma 13 Oeste 0 -- -- 96
2017-10-19 06:00:00 9.9 7 Oeste 12 Oeste 0 -- -- 95
2017-10-19 05:00:00 10.3 3 Nordeste 6 Sudoeste 0 -- -- 93
2017-10-19 04:00:00 10.3 0 Calma 6 Sudoeste 0 -- -- 94
2017-10-19 03:00:00 10.4 5 Sudeste 9 Este 0 -- -- 95
2017-10-19 02:00:00 10.4 0 Calma 12 Norte 0 -- -- 94
2017-10-19 01:00:00 10.6 9 Oeste 19 Oeste 0.8 -- -- 93
2017-10-19 00:00:00 11.6 10 Sur 30 Sudeste 3.8 -- -- 93
2017-10-18 23:00:00 11.7 15 Sudeste 27 Sudeste 5 -- -- 92
2017-10-18 22:00:00 11.6 13 Sudeste 31 Sudeste 1.4 -- -- 91
2017-10-18 21:00:00 12.3 7 Sudeste 19 Sudeste 0 -- -- 87
2017-10-18 20:00:00 12.5 10 Sudeste 27 Sur 0 -- -- 87
2017-10-18 19:00:00 12.6 15 Sur 30 Sur 0.2 -- -- 86
2017-10-18 18:00:00 13.1 18 Sur 32 Sur 0 -- -- 83
2017-10-18 17:00:00 13.4 20 Sur 28 Sur 0 -- -- 81
2017-10-18 16:00:00 13.2 6 Este 23 Sudeste 0.2 -- -- 86
2017-10-18 15:00:00 13.7 15 Sudeste 34 Sudeste -- -- -- 85
2017-10-18 14:00:00 13.7 29 Sudeste 39 Sudeste 8.8 -- -- 88
2017-10-18 13:00:00 15.4 18 Sudeste 33 Sudeste 2.6 -- -- 84
2017-10-18 12:00:00 15.2 16 Sur 47 Sudeste 0.8 -- -- 86
2017-10-18 11:00:00 14.5 17 Sur 43 Sudeste 3.4 -- -- 88
2017-10-18 10:00:00 14.9 14 Sudeste 26 Sur 0 -- -- 81
2017-10-18 09:00:00 14.1 13 Sudeste 23 Sur 0 -- -- 83
2017-10-18 08:00:00 14 12 Sudeste 27 Sudeste 0.2 -- -- 85
2017-10-18 07:00:00 14.1 19 Sudeste 29 Sudeste 0 -- -- 86
2017-10-18 06:00:00 14 18 Sur 28 Sudeste 0.4 -- -- 86
2017-10-18 05:00:00 14.1 12 Sur 30 Sudeste 0 -- -- 85
2017-10-18 04:00:00 14.2 18 Sur 26 Sudeste 0 -- -- 84
2017-10-18 03:00:00 13.8 18 Sudeste 29 Sudeste 2.2 -- -- 87
2017-10-18 02:00:00 14 17 Sur 39 Sur 1.2 -- -- 86
2017-10-18 01:00:00 15 25 Sur 47 Sudoeste 0.8 -- -- 79
2017-10-18 00:00:00 16.9 21 Sur 30 Sur 0 -- -- 66
2017-10-17 23:00:00 17.7 19 Sur 29 Sur 0 -- -- 63
2017-10-17 22:00:00 18 17 Sur 28 Sur 0 -- -- 60
2017-10-17 21:00:00 18.3 18 Sudeste 36 Sur 0 -- -- 57
2017-10-17 20:00:00 18.8 23 Sur 39 Sur 0 -- -- 52
2017-10-17 19:00:00 19.4 20 Sur 32 Sur 0 -- -- 49
2017-10-17 18:00:00 20.3 21 Sur 35 Sur 0 -- -- 44
2017-10-17 17:00:00 21 27 Sur 48 Sur 0 -- -- 44
2017-10-17 16:00:00 21.3 31 Sur 47 Sur 0 -- -- 40
2017-10-17 15:00:00 22.1 28 Sur 46 Sur 0 -- -- 34
2017-10-17 14:00:00 20.5 31 Sur 42 Sur 0 -- -- 46
2017-10-17 13:00:00 19.4 23 Sur 44 Sur 0 -- -- 55
2017-10-17 12:00:00 17.4 32 Sur 46 Sur 0 -- -- 63
2017-10-17 11:00:00 16.1 18 Sudoeste 33 Sudeste 0 -- -- 70
2017-10-17 10:00:00 14.3 13 Sudeste 25 Este 0 -- -- 81
2017-10-17 09:00:00 12.5 13 Sudeste 25 Sur 0 -- -- 87
2017-10-17 08:00:00 12.4 9 Sudeste 30 Sur 0 -- -- 87
2017-10-17 07:00:00 13.1 19 Sur 30 Sur 0 -- -- 85
2017-10-17 06:00:00 13.1 14 Sur 24 Sur 0 -- -- 86
2017-10-17 05:00:00 13.7 12 Sur 22 Sur 0 -- -- 82
2017-10-17 04:00:00 14.2 5 Sudeste 25 Sudeste 0 -- -- 74
2017-10-17 03:00:00 14 11 Este 16 Este 0 -- -- 75
2017-10-17 02:00:00 15 3 Oeste 17 Sudeste 0 -- -- 73
2017-10-17 01:00:00 15.8 12 Sudeste 21 Sur 0 -- -- 66
2017-10-17 00:00:00 16.4 13 Sudeste 20 Sudeste 0 -- -- 63
2017-10-16 23:00:00 17 8 Sudeste 23 Sudeste 0 -- -- 62
2017-10-16 22:00:00 17.2 8 Este 22 Sur 0 -- -- 65
2017-10-16 21:00:00 18.2 10 Sur 22 Sur 0 -- -- 63
2017-10-16 20:00:00 18.8 7 Este 24 Sur 0 -- -- 59
2017-10-16 19:00:00 21.3 17 Sur 26 Sur 0 -- -- 50
2017-10-16 18:00:00 23.1 14 Sur 28 Sur 0 -- -- 46
2017-10-16 17:00:00 24.1 13 Sur 23 Sur 0 -- -- 41
2017-10-16 16:00:00 24.4 11 Sur 26 Sur 0 -- -- 42
2017-10-16 15:00:00 23.9 14 Sudoeste 24 Sur 0 -- -- 44
2017-10-16 14:00:00 23.3 14 Sur 23 Sudeste 0 -- -- 48
2017-10-16 13:00:00 21.7 14 Sur 32 Sudeste 0 -- -- 55
2017-10-16 12:00:00 19.8 25 Sur 36 Sudeste 0 -- -- 62
2017-10-16 11:00:00 18.4 12 Sur 27 Sur 0 -- -- 69
2017-10-16 10:00:00 16.7 12 Sur 30 Sur 0 -- -- 76
2017-10-16 09:00:00 15 17 Sur 27 Sur 0 -- -- 81
2017-10-16 08:00:00 14.5 21 Sur 30 Sur 0 -- -- 83
2017-10-16 07:00:00 14.6 22 Sur 30 Sur 0 -- -- 83
2017-10-16 06:00:00 14.8 15 Sur 24 Sur 0 -- -- 84
2017-10-16 05:00:00 14.3 8 Sudeste 23 Este 0 -- -- 86
2017-10-16 04:00:00 14.8 9 Sudeste 23 Sur 0 -- -- 86
2017-10-16 03:00:00 15.5 19 Sur 26 Sur 0 -- -- 84
2017-10-16 02:00:00 15.5 8 Sudeste 24 Sur 0 -- -- 84
2017-10-16 01:00:00 16.1 17 Sur 24 Sur 0 -- -- 82
2017-10-16 00:00:00 16.8 12 Sur 18 Sur 0 -- -- 79
2017-10-15 23:00:00 17.2 14 Sudeste 20 Sur 0 -- -- 76
2017-10-15 22:00:00 17.5 9 Sudeste 23 Sur 0 -- -- 74
2017-10-15 21:00:00 18.8 16 Sur 28 Sur 0 -- -- 69
2017-10-15 20:00:00 19.6 21 Sur 32 Sur 0 -- -- 65
2017-10-15 19:00:00 20.9 21 Sur 34 Sur 0 -- -- 60
2017-10-15 18:00:00 23.1 15 Sur 30 Sur 0 -- -- 51
2017-10-15 17:00:00 23.7 20 Sur 27 Sur 0 -- -- 50
2017-10-15 16:00:00 24.1 15 Sudoeste 26 Sudoeste 0 -- -- 50
2017-10-15 15:00:00 23.2 14 Sur 28 Sur 0 -- -- 53
2017-10-15 14:00:00 22.5 17 Sur 26 Sudeste 0 -- -- 55
2017-10-15 13:00:00 21.5 16 Sudeste 27 Sur 0 -- -- 58
2017-10-15 12:00:00 20 16 Sur 27 Sur 0 -- -- 62
2017-10-15 11:00:00 18.6 13 Sur 25 Sudoeste 0 -- -- 70
2017-10-15 10:00:00 17.2 9 Sur 21 Sur 0 -- -- 76
2017-10-15 09:00:00 15.3 11 Sudeste 27 Sur 0 -- -- 84
2017-10-15 08:00:00 13.8 15 Sudeste 25 Sur 0 -- -- 90
2017-10-15 07:00:00 14.6 10 Sudeste 21 Sur 0 -- -- 87
2017-10-15 06:00:00 15.8 16 Sur 31 Sudoeste 0 -- -- 82
2017-10-15 05:00:00 15.5 18 Sur 32 Sudoeste 0 -- -- 84
2017-10-15 04:00:00 15.4 17 Sur 23 Sur 0 -- -- 85
2017-10-15 03:00:00 15.8 14 Sur 23 Sur 0 -- -- 83
2017-10-15 02:00:00 16.4 18 Sur 23 Sur 0 -- -- 81
2017-10-15 01:00:00 16.5 17 Sur 22 Sur 0 -- -- 81
2017-10-15 00:00:00 17 13 Sur 28 Sur 0 -- -- 80
2017-10-14 23:00:00 18.1 12 Sur 23 Sudeste 0 -- -- 75
2017-10-14 22:00:00 18.4 18 Sur 26 Sur 0 -- -- 72
2017-10-14 21:00:00 18.8 12 Sudeste 35 Sur 0 -- -- 70
2017-10-14 20:00:00 20.2 19 Sur 32 Sur 0 -- -- 63
2017-10-14 19:00:00 21.8 23 Sudoeste 36 Sur 0 -- -- 54
2017-10-14 18:00:00 23.5 24 Sur 35 Sur 0 -- -- 49
2017-10-14 17:00:00 24.5 21 Sur 36 Sudoeste 0 -- -- 44
2017-10-14 16:00:00 24.4 24 Sur 37 Sur 0 -- -- 45
2017-10-14 15:00:00 24.5 22 Sur 32 Sur 0 -- -- 47
2017-10-14 14:00:00 24.2 19 Sur 30 Sur 0 -- -- 49
2017-10-14 13:00:00 23 13 Sur 22 Sur 0 -- -- 52
2017-10-14 12:00:00 21.5 12 Sur 22 Sur 0 -- -- 52
2017-10-14 11:00:00 19.3 12 Sur 23 Sudeste 0 -- -- 61
2017-10-14 10:00:00 16.1 11 Sudeste 20 Sur 0 -- -- 69
2017-10-14 09:00:00 12.4 4 Este 13 Este 0 -- -- 69
2017-10-14 08:00:00 12.3 6 Sudoeste 17 Sur 0 -- -- 67
2017-10-14 07:00:00 13.3 6 Este 13 Sudeste 0 -- -- 65
2017-10-14 06:00:00 13.4 5 Sudeste 14 Sur 0 -- -- 66
2017-10-14 05:00:00 13.6 4 Sudeste 10 Sudeste 0 -- -- 66
2017-10-14 04:00:00 13.5 5 Este 9 Este 0 -- -- 61
2017-10-14 03:00:00 14.7 7 Nordeste 13 Sur 0 -- -- 58
2017-10-14 02:00:00 15 5 Sudeste 11 Sur 0 -- -- 56
2017-10-14 01:00:00 16.3 3 Sur 17 Sudoeste 0 -- -- 61
2017-10-14 00:00:00 19.2 11 Sudeste 22 Este 0 -- -- 56
2017-10-13 23:00:00 19.1 6 Sur 24 Sudeste 0 -- -- 54
2017-10-13 22:00:00 20.5 13 Sudeste 21 Sur 0 -- -- 44
2017-10-13 21:00:00 20.7 8 Sur 12 Sur 0 -- -- 41
2017-10-13 20:00:00 21.9 7 Sudoeste 12 Sudoeste 0 -- -- 38
2017-10-13 19:00:00 24.4 5 Sudoeste 10 Noroeste 0 -- -- 35
2017-10-13 18:00:00 27.2 7 Noroeste 13 Noroeste 0 -- -- 33
2017-10-13 17:00:00 27.7 8 Noroeste 15 Noroeste 0 -- -- 29
2017-10-13 16:00:00 27.6 9 Noroeste 15 Norte 0 -- -- 28
2017-10-13 15:00:00 27.7 4 Este 14 Sudoeste 0 -- -- 28
2017-10-13 14:00:00 26.1 6 Sur 13 Norte 0 -- -- 28
2017-10-13 13:00:00 23.8 4 Norte 13 Este 0 -- -- 33
2017-10-13 12:00:00 21.5 6 Este 13 Sur 0 -- -- 37
2017-10-13 11:00:00 15.5 5 Noroeste 8 Noroeste 0 -- -- 58
2017-10-13 10:00:00 12.7 3 Norte 7 Norte 0 -- -- 67
2017-10-13 09:00:00 10.3 0 Calma 5 Norte 0 -- -- 72
2017-10-13 08:00:00 9.9 3 Este 12 Sudeste 0 -- -- 73
2017-10-13 07:00:00 10.2 4 Nordeste 8 Sudoeste 0 -- -- 74
2017-10-13 06:00:00 11.4 4 Este 8 Sudeste 0 -- -- 69
2017-10-13 05:00:00 10.8 3 Este 9 Norte 0 -- -- 72
2017-10-13 04:00:00 11.7 3 Oeste 5 Sudeste 0 -- -- 73
2017-10-13 03:00:00 12.9 3 Norte 15 Este 0 -- -- 67
2017-10-13 02:00:00 14.5 6 Sudeste 18 Este 0 -- -- 68
2017-10-13 01:00:00 14.5 6 Este 15 Sudeste 0 -- -- 69
2017-10-13 00:00:00 14.5 2 Sudoeste 5 Este 0 -- -- 65
2017-10-12 23:00:00 15.9 0 Calma 6 Sudoeste 0 -- -- 60
2017-10-12 22:00:00 17.5 4 Este 11 Sudoeste 0 -- -- 56
2017-10-12 21:00:00 19.5 3 Sudoeste 10 Sudoeste 0 -- -- 54
2017-10-12 20:00:00 19.4 6 Sudeste 16 Sudoeste 0 -- -- 50
2017-10-12 19:00:00 21.9 8 Sudoeste 12 Nordeste 0 -- -- 42
2017-10-12 18:00:00 24.8 6 Norte 17 Norte 0 -- -- 35
2017-10-12 17:00:00 25.5 11 Norte 19 Noroeste 0 -- -- 36
2017-10-12 16:00:00 25.7 11 Norte 20 Noroeste 0 -- -- 35
2017-10-12 15:00:00 25 5 Sudeste 18 Sur 0 -- -- 35
2017-10-12 14:00:00 24.1 10 Sudeste 19 Sur 0 -- -- 38
2017-10-12 13:00:00 21.5 5 Este 12 Este 0 -- -- 45
2017-10-12 12:00:00 17.9 2 Noroeste 7 Noroeste 0 -- -- 51
2017-10-12 11:00:00 14.5 3 Norte 6 Sudeste 0 -- -- 57
2017-10-12 10:00:00 12.1 3 Nordeste 6 Nordeste 0 -- -- 64
2017-10-12 09:00:00 9.2 0 Calma 4 Este 0 -- -- 75
2017-10-12 08:00:00 9.3 2 Norte 6 Noroeste 0 -- -- 73
2017-10-12 07:00:00 10 3 Norte 12 Sudeste 0 -- -- 71
2017-10-12 06:00:00 10.1 2 Sudeste 3 Sudeste 0 -- -- 73
2017-10-12 05:00:00 10.8 2 Este 5 Sudeste 0 -- -- 71
2017-10-12 04:00:00 10.8 3 Noroeste 6 Noroeste 0 -- -- 71
2017-10-12 03:00:00 12.3 3 Noroeste 5 Noroeste 0 -- -- 64
2017-10-12 02:00:00 13.2 4 Este 9 Noroeste 0 -- -- 62
2017-10-12 01:00:00 13.5 5 Noroeste 12 Noroeste 0 -- -- 61
2017-10-12 00:00:00 15.3 2 Este 6 Sudoeste 0 -- -- 56
2017-10-11 23:00:00 16.1 2 Sudoeste 9 Sudoeste 0 -- -- 53
2017-10-11 22:00:00 17.3 6 Sudoeste 9 Sudoeste 0 -- -- 48
2017-10-11 21:00:00 18.6 3 Sur 9 Sudoeste 0 -- -- 43
2017-10-11 20:00:00 19.8 5 Norte 9 Sudoeste 0 -- -- 39
2017-10-11 19:00:00 22.7 5 Sudoeste 11 Noroeste 0 -- -- 36
2017-10-11 18:00:00 25.4 7 Norte 13 Noroeste 0 -- -- 33
2017-10-11 17:00:00 25.8 8 Noroeste 17 Noroeste 0 -- -- 30
2017-10-11 16:00:00 25.9 5 Sudeste 17 Sur 0 -- -- 29
2017-10-11 15:00:00 24.7 8 Sudeste 17 Sur 0 -- -- 31
2017-10-11 14:00:00 24.1 9 Sur 23 Sur 0 -- -- 33
2017-10-11 13:00:00 22.5 14 Sur 28 Sur 0 -- -- 34
2017-10-11 12:00:00 19.8 5 Sudeste 10 Sudeste 0 -- -- 43
2017-10-11 11:00:00 16.1 5 Nordeste 10 Nordeste 0 -- -- 54
2017-10-11 10:00:00 12.6 3 Nordeste 12 Nordeste 0 -- -- 62
2017-10-11 09:00:00 10 5 Este 13 Sudeste 0 -- -- 69
2017-10-11 08:00:00 9 4 Este 11 Sudeste 0 -- -- 72
2017-10-11 07:00:00 10 5 Sudeste 9 Sur 0 -- -- 66
2017-10-11 06:00:00 9.9 0 Calma 6 Este 0 -- -- 65
2017-10-11 05:00:00 10 2 Este 9 Sudeste 0 -- -- 64
2017-10-11 04:00:00 11.6 4 Este 13 Sur 0 -- -- 59
2017-10-11 03:00:00 12.6 5 Sudeste 13 Sur 0 -- -- 56
2017-10-11 02:00:00 13.1 0 Calma 9 Sudeste 0 -- -- 53
2017-10-11 01:00:00 15 5 Sudeste 15 Este 0 -- -- 51
2017-10-11 00:00:00 13.9 4 Norte 10 Nordeste 0 -- -- 51
2017-10-10 23:00:00 15.3 3 Sur 10 Sudeste 0 -- -- 46
2017-10-10 22:00:00 15.4 2 Sudoeste 5 Sudoeste 0 -- -- 45
2017-10-10 21:00:00 16.6 5 Oeste 11 Sudoeste 0 -- -- 42
2017-10-10 20:00:00 17.9 5 Oeste 12 Sudoeste 0 -- -- 38
2017-10-10 19:00:00 21.2 6 Sudoeste 12 Noroeste 0 -- -- 34
2017-10-10 18:00:00 24.2 6 Noroeste 15 Oeste 0 -- -- 27
2017-10-10 17:00:00 24 6 Noroeste 15 Noroeste 0 -- -- 28
2017-10-10 16:00:00 23.4 6 Noroeste 14 Noroeste 0 -- -- 33
2017-10-10 15:00:00 22.5 8 Noroeste 16 Noroeste 0 -- -- 35
2017-10-10 14:00:00 20.8 4 Norte 10 Noroeste 0 -- -- 36
2017-10-10 13:00:00 19 4 Oeste 10 Noroeste 0 -- -- 42
2017-10-10 12:00:00 16.3 3 Sudeste 8 Noroeste 0 -- -- 51
2017-10-10 11:00:00 13 3 Norte 8 Este 0 -- -- 59
2017-10-10 10:00:00 10.4 3 Nordeste 6 Nordeste 0 -- -- 68
2017-10-10 09:00:00 6.8 3 Noroeste 4 Noroeste 0 -- -- 79
2017-10-10 08:00:00 6.5 0 Calma 4 Sudoeste 0 -- -- 80
2017-10-10 07:00:00 6.2 0 Calma 7 Sudoeste 0 -- -- 79
2017-10-10 06:00:00 7.8 4 Sudoeste 6 Sudoeste 0 -- -- 75
2017-10-10 05:00:00 8 0 Calma 5 Oeste 0 -- -- 73
2017-10-10 04:00:00 8.8 3 Oeste 5 Noroeste 0 -- -- 70
2017-10-10 03:00:00 9.7 4 Noroeste 5 Noroeste 0 -- -- 65
2017-10-10 02:00:00 10.6 0 Calma 5 Oeste 0 -- -- 62
2017-10-10 01:00:00 12.2 4 Sudoeste 5 Sudoeste 0 -- -- 57
2017-10-10 00:00:00 13.5 3 Sudoeste 8 Sudeste 0 -- -- 50
2017-10-09 23:00:00 14.6 6 Sur 9 Sur 0 -- -- 50
2017-10-09 22:00:00 16.2 2 Este 14 Oeste 0 -- -- 40
2017-10-09 21:00:00 18.2 12 Oeste 25 Oeste 0 -- -- 36
2017-10-09 20:00:00 18.5 17 Oeste 27 Noroeste 0 -- -- 36
2017-10-09 19:00:00 21.9 25 Noroeste 33 Noroeste 0 -- -- 31
2017-10-09 18:00:00 23.5 22 Oeste 35 Oeste 0 -- -- 33
2017-10-09 17:00:00 23.9 18 Noroeste 27 Oeste 0 -- -- 35
2017-10-09 16:00:00 24 14 Oeste 24 Noroeste 0 -- -- 32
2017-10-09 15:00:00 22.8 7 Noroeste 15 Noroeste 0 -- -- 34
2017-10-09 14:00:00 21.2 5 Nordeste 14 Noroeste 0 -- -- 35
2017-10-09 13:00:00 19.6 8 Noroeste 15 Oeste 0 -- -- 35
2017-10-09 12:00:00 17.1 3 Este 8 Sudeste 0 -- -- 43
2017-10-09 11:00:00 13.3 4 Norte 8 Nordeste 0 -- -- 54
2017-10-09 10:00:00 11 3 Nordeste 6 Este 0 -- -- 59
2017-10-09 09:00:00 7.3 2 Nordeste 6 Noroeste 0 -- -- 71
2017-10-09 08:00:00 6.6 3 Sur 5 Sur 0 -- -- 72
2017-10-09 07:00:00 6.6 0 Calma 4 Nordeste 0 -- -- 70
2017-10-09 06:00:00 6.8 0 Calma 4 Noroeste 0 -- -- 69
2017-10-09 05:00:00 7.4 2 Sur 4 Sudeste 0 -- -- 66
2017-10-09 04:00:00 8.3 0 Calma -- -- 0 -- -- 63
2017-10-09 03:00:00 8.8 3 Noroeste 6 Noroeste 0 -- -- 61
2017-10-09 02:00:00 10.1 3 Oeste 8 Sudoeste 0 -- -- 56
2017-10-09 01:00:00 11 3 Oeste 8 Sudoeste 0 -- -- 53
2017-10-09 00:00:00 11.9 6 Sudoeste 9 Sudoeste 0 -- -- 50
2017-10-08 23:00:00 13.1 3 Oeste 8 Sur 0 -- -- 47
2017-10-08 22:00:00 14.5 3 Sur 9 Sudeste 0 -- -- 44
2017-10-08 21:00:00 16.1 2 Noroeste 16 Noroeste 0 -- -- 40
2017-10-08 20:00:00 17.9 10 Oeste 22 Oeste 0 -- -- 36
2017-10-08 19:00:00 21.5 12 Oeste 28 Oeste 0 -- -- 32
2017-10-08 18:00:00 23.5 20 Oeste 31 Oeste 0 -- -- 29
2017-10-08 17:00:00 24.2 21 Oeste 30 Oeste 0 -- -- 29
2017-10-08 16:00:00 24.1 14 Noroeste 26 Noroeste 0 -- -- 31
2017-10-08 15:00:00 22 5 Noroeste 13 Este 0 -- -- 38
2017-10-08 14:00:00 20.8 6 Norte 11 Norte 0 -- -- 36
2017-10-08 13:00:00 18 3 Norte 9 Este 0 -- -- 44
2017-10-08 12:00:00 15.1 4 Este 8 Este 0 -- -- 55
2017-10-08 11:00:00 11.9 4 Norte 6 Noroeste 0 -- -- 67
2017-10-08 10:00:00 9.8 3 Sudeste 5 Nordeste 0 -- -- 74
2017-10-08 09:00:00 6.8 0 Calma 4 Sur 0 -- -- 85
2017-10-08 08:00:00 6.1 2 Sudoeste 4 Sudoeste 0 -- -- 86
2017-10-08 07:00:00 6.8 0 Calma 5 Sudoeste 0 -- -- 84
2017-10-08 06:00:00 7 2 Noroeste 4 Sudoeste 0 -- -- 83
2017-10-08 05:00:00 7.7 0 Calma 3 Sudoeste 0 -- -- 81
2017-10-08 04:00:00 8.3 2 Oeste 4 Oeste 0 -- -- 79
2017-10-08 03:00:00 9.2 2 Este 5 Oeste 0 -- -- 77
2017-10-08 02:00:00 9.8 2 Noroeste 8 Sudoeste 0 -- -- 73
2017-10-08 01:00:00 11.3 5 Sudoeste 7 Sudoeste 0 -- -- 68
2017-10-08 00:00:00 11.9 3 Noroeste 5 Oeste 0 -- -- 67
2017-10-07 23:00:00 13 2 Norte 6 Sudoeste 0 -- -- 63
2017-10-07 22:00:00 13.9 4 Sudoeste 11 Sur 0 -- -- 61
2017-10-07 21:00:00 16 8 Sur 13 Sur 0 -- -- 54
2017-10-07 20:00:00 17.1 2 Nordeste 13 Noroeste 0 -- -- 51
2017-10-07 19:00:00 20.4 12 Noroeste 24 Noroeste 0 -- -- 44
2017-10-07 18:00:00 22.3 18 Noroeste 24 Noroeste 0 -- -- 39
2017-10-07 17:00:00 22.1 12 Nordeste 18 Norte 0 -- -- 39
2017-10-07 16:00:00 22.2 3 Este 16 Nordeste 0 -- -- 37
2017-10-07 15:00:00 21.3 10 Norte 18 Norte 0 -- -- 37
2017-10-07 14:00:00 20 7 Noroeste 14 Norte 0 -- -- 36
2017-10-07 13:00:00 17.6 7 Noroeste 13 Noroeste 0 -- -- 43
2017-10-07 12:00:00 14.9 5 Norte 9 Noroeste 0 -- -- 49
2017-10-07 11:00:00 12 3 Este 8 Nordeste 0 -- -- 57
2017-10-07 10:00:00 7.8 4 Oeste 8 Sudeste 0 -- -- 73
2017-10-07 09:00:00 6.1 5 Este 7 Sudoeste 0 -- -- 77
2017-10-07 08:00:00 5.5 3 Noroeste 6 Sudoeste 0 -- -- 77
2017-10-07 07:00:00 6 2 Sudoeste 5 Noroeste 0 -- -- 75
2017-10-07 06:00:00 6.8 2 Noroeste 5 Sudoeste 0 -- -- 72
2017-10-07 05:00:00 7.9 2 Sur 5 Noroeste 0 -- -- 68
2017-10-07 04:00:00 8.2 4 Sudoeste 9 Sudoeste 0 -- -- 66
2017-10-07 03:00:00 9.7 6 Sudoeste 8 Sudoeste 0 -- -- 60
2017-10-07 02:00:00 10.4 5 Sur 9 Sudeste 0 -- -- 59
2017-10-07 01:00:00 11.2 6 Sudeste 10 Sur 0 -- -- 59
2017-10-07 00:00:00 12.2 3 Este 12 Oeste 0 -- -- 58
2017-10-06 23:00:00 12.2 10 Oeste 24 Noroeste 0 -- -- 60
2017-10-06 22:00:00 12.4 9 Oeste 21 Noroeste 0 -- -- 61
2017-10-06 21:00:00 13.7 16 Noroeste 39 Noroeste 0 -- -- 57
2017-10-06 20:00:00 15.2 25 Noroeste 51 Noroeste 0 -- -- 52
2017-10-06 19:00:00 16.9 35 Noroeste 50 Noroeste 0 -- -- 49
2017-10-06 18:00:00 18.8 37 Noroeste 53 Noroeste 0 -- -- 48
2017-10-06 17:00:00 20.2 37 Noroeste 53 Noroeste 0 -- -- 46
2017-10-06 16:00:00 21.1 33 Noroeste 51 Noroeste 0 -- -- 46
2017-10-06 15:00:00 21.5 32 Noroeste 53 Noroeste 0 -- -- 45
2017-10-06 14:00:00 21.1 32 Noroeste 50 Noroeste 0 -- -- 49
2017-10-06 13:00:00 20.5 35 Noroeste 53 Noroeste 0 -- -- 51
2017-10-06 12:00:00 19.1 37 Noroeste 49 Noroeste 0 -- -- 54
2017-10-06 11:00:00 17.1 4 Sudeste 10 Este 0 -- -- 48
2017-10-06 10:00:00 15.3 3 Este 6 Este 0 -- -- 50
2017-10-06 09:00:00 13.4 3 Sudeste 6 Sudeste 0 -- -- 47
2017-10-06 08:00:00 10.9 6 Oeste 13 Oeste 0 -- -- 49
2017-10-06 07:00:00 11.4 3 Sudoeste 8 Sudoeste 0 -- -- 49
2017-10-06 06:00:00 11.3 3 Sudoeste 9 Sudeste 0 -- -- 60
2017-10-06 05:00:00 12.2 5 Sur 10 Norte 0 -- -- 65
2017-10-06 04:00:00 13.8 8 Noroeste 25 Noroeste 0 -- -- 60
2017-10-06 03:00:00 14.4 13 Noroeste 19 Noroeste 0 -- -- 62
2017-10-06 02:00:00 14.4 7 Noroeste 24 Norte 0 -- -- 65
2017-10-06 01:00:00 15 14 Noroeste 27 Noroeste 0 -- -- 66
2017-10-06 00:00:00 15.1 13 Noroeste 19 Norte 0 -- -- 65
2017-10-05 23:00:00 16.5 12 Noroeste 30 Noroeste 0 -- -- 63
2017-10-05 22:00:00 16.1 12 Oeste 15 Oeste 0 -- -- 65
2017-10-05 21:00:00 16.8 10 Noroeste 23 Oeste 0 -- -- 64
2017-10-05 20:00:00 17.8 14 Oeste 37 Noroeste 0 -- -- 63
2017-10-05 19:00:00 21.3 27 Noroeste 45 Noroeste 0 -- -- 55
2017-10-05 18:00:00 25.1 30 Noroeste 41 Noroeste 0 -- -- 42
2017-10-05 17:00:00 25.9 28 Noroeste 40 Noroeste 0 -- -- 45
2017-10-05 16:00:00 26.4 28 Noroeste 39 Noroeste 0 -- -- 43
2017-10-05 15:00:00 26.5 23 Noroeste 34 Noroeste 0 -- -- 41
2017-10-05 14:00:00 25.5 19 Noroeste 27 Noroeste 0 -- -- 42
2017-10-05 13:00:00 23.2 10 Noroeste 17 Noroeste 0 -- -- 51
2017-10-05 12:00:00 20.2 4 Oeste 8 Nordeste 0 -- -- 58
2017-10-05 11:00:00 17.1 3 Sudoeste 8 Norte 0 -- -- 69
2017-10-05 10:00:00 14.1 2 Noroeste 4 Nordeste 0 -- -- 77
2017-10-05 09:00:00 12.1 0 Calma 4 Oeste 0 -- -- 84
2017-10-05 08:00:00 11 4 Oeste 4 Oeste 0 -- -- 85
2017-10-05 07:00:00 11.8 3 Sudeste 4 Sur 0 -- -- 85
2017-10-05 06:00:00 12.1 3 Norte 4 Oeste 0 -- -- 81
2017-10-05 05:00:00 12.6 2 Este 5 Norte 0 -- -- 80
2017-10-05 04:00:00 12.9 4 Noroeste 6 Noroeste 0 -- -- 76
2017-10-05 03:00:00 14.4 0 Calma 7 Sur 0 -- -- 73
2017-10-05 02:00:00 15 0 Calma 8 Noroeste 0 -- -- 67
2017-10-05 01:00:00 15 3 Sudoeste 6 Sudoeste 0 -- -- 65
2017-10-05 00:00:00 16.1 4 Norte 12 Este 0 -- -- 61
2017-10-04 23:00:00 16.5 3 Noroeste 7 Sudoeste 0 -- -- 60
2017-10-04 22:00:00 17.6 3 Noroeste 7 Noroeste 0 -- -- 59
2017-10-04 21:00:00 19.5 4 Sudoeste 13 Sudoeste 0 -- -- 50
2017-10-04 20:00:00 19.9 11 Sudoeste 16 Sudoeste 0 -- -- 53
2017-10-04 19:00:00 23.1 9 Sudoeste 12 Sudoeste 0 -- -- 47
2017-10-04 18:00:00 25.4 8 Sudoeste 14 Sudoeste 0 -- -- 41
2017-10-04 17:00:00 25.1 9 Sur 15 Sur 0 -- -- 41
2017-10-04 16:00:00 24.8 10 Sur 18 Sur 0 -- -- 44
2017-10-04 15:00:00 24.7 11 Sur 22 Sur 0 -- -- 45
2017-10-04 14:00:00 24.4 10 Sur 24 Sur 0 -- -- 50
2017-10-04 13:00:00 22.8 15 Sur 23 Sur 0 -- -- 52
2017-10-04 12:00:00 20.8 7 Este 15 Este 0 -- -- 63
2017-10-04 11:00:00 18 5 Nordeste 12 Nordeste 0 -- -- 70
2017-10-04 10:00:00 15.9 5 Sur 13 Sur 0 -- -- 76
2017-10-04 09:00:00 12.8 3 Este 14 Sudeste 0 -- -- 86
2017-10-04 08:00:00 14 12 Sur 25 Sur 0 -- -- 82
2017-10-04 07:00:00 13.6 12 Sur 17 Sur 0 -- -- 86
2017-10-04 06:00:00 12 3 Este 6 Sudoeste 0 -- -- 89
2017-10-04 05:00:00 12.7 4 Sudoeste 5 Sudoeste 0 -- -- 85
2017-10-04 04:00:00 13 0 Calma 5 Sudoeste 0 -- -- 86
2017-10-04 03:00:00 13.2 2 Oeste 8 Sur 0 -- -- 85
2017-10-04 02:00:00 14.3 0 Calma 7 Noroeste 0 -- -- 80
2017-10-04 01:00:00 14.1 4 Oeste 11 Este 0 -- -- 80
2017-10-04 00:00:00 16.3 6 Sur 10 Sudoeste 0 -- -- 73
2017-10-03 23:00:00 16.3 6 Sur 9 Sudeste 0 -- -- 73
2017-10-03 22:00:00 17.5 5 Sudeste 9 Sudeste 0 -- -- 68
2017-10-03 21:00:00 18.4 7 Sudeste 12 Sur 0 -- -- 64
2017-10-03 20:00:00 20.2 2 Noroeste 14 Noroeste 0 -- -- 58
2017-10-03 19:00:00 23.5 12 Noroeste 20 Noroeste 0 -- -- 48
2017-10-03 18:00:00 24.6 14 Noroeste 23 Noroeste 0 -- -- 45
2017-10-03 17:00:00 25.1 15 Noroeste 28 Noroeste 0 -- -- 45
2017-10-03 16:00:00 24.9 17 Oeste 27 Oeste 0 -- -- 45
2017-10-03 15:00:00 23.9 18 Oeste 27 Oeste 0 -- -- 50
2017-10-03 14:00:00 23.5 9 Noroeste 19 Noroeste -- -- -- 49
2017-10-03 13:00:00 21.5 6 Noroeste 14 Noroeste 0 -- -- 56
2017-10-03 12:00:00 19.4 6 Este 11 Nordeste 0 -- -- 66
2017-10-03 11:00:00 15.8 4 Este 7 Este 0 -- -- 97
2017-10-03 10:00:00 12.7 4 Sudeste 6 Noroeste 0 -- -- 97
2017-10-03 09:00:00 11.7 3 Norte 6 Noroeste 0 -- -- 95
2017-10-03 08:00:00 11.8 2 Nordeste 3 Nordeste 0 -- -- 96
2017-10-03 07:00:00 12.1 2 Nordeste 4 Sudoeste 0 -- -- 94
2017-10-03 06:00:00 12.4 0 Calma 3 Sur 0 -- -- 94
2017-10-03 05:00:00 12.8 0 Calma 5 Noroeste 0 -- -- 94
2017-10-03 04:00:00 13.7 0 Calma 4 Oeste 0 -- -- 92
2017-10-03 03:00:00 13.8 0 Calma 3 Norte 0 -- -- 90
2017-10-03 02:00:00 14.8 0 Calma 2 Norte 0 -- -- 87
2017-10-03 01:00:00 15.3 0 Calma 6 Sudoeste 0 -- -- 86
2017-10-03 00:00:00 16.4 5 Sur 8 Sudoeste 0 -- -- 82
2017-10-02 23:00:00 17 5 Sur 7 Sudoeste 0 -- -- 81
2017-10-02 22:00:00 17.5 5 Sudeste 8 Sur 0 -- -- 79
2017-10-02 21:00:00 18.8 2 Sur 5 Norte 0 -- -- 73
2017-10-02 20:00:00 20.2 2 Oeste 20 Norte 0 -- -- 69
2017-10-02 19:00:00 22.4 14 Noroeste 22 Noroeste 0 -- -- 61
2017-10-02 18:00:00 24.6 12 Noroeste 21 Noroeste 0 -- -- 54
2017-10-02 17:00:00 24.6 16 Noroeste 33 Norte 0 -- -- 56
2017-10-02 16:00:00 24.7 19 Noroeste 37 Noroeste 0 -- -- 55
2017-10-02 15:00:00 24.1 25 Noroeste 36 Noroeste 0 -- -- 57
2017-10-02 14:00:00 23.2 27 Noroeste 39 Noroeste 0 -- -- 60
2017-10-02 13:00:00 22.6 20 Noroeste 31 Noroeste 0 -- -- 61
2017-10-02 12:00:00 20.3 15 Noroeste 35 Noroeste 0 -- -- 68
2017-10-02 11:00:00 20 17 Noroeste 31 Noroeste 0 -- -- 68
2017-10-02 10:00:00 18.3 19 Noroeste 30 Noroeste 0 -- -- 72
2017-10-02 09:00:00 16.1 4 Este 16 Noroeste 0 -- -- 81
2017-10-02 08:00:00 16.2 13 Noroeste 24 Noroeste 0 -- -- 79
2017-10-02 07:00:00 15.8 5 Norte 12 Norte 0 -- -- 79
2017-10-02 06:00:00 15.8 12 Noroeste 18 Noroeste 0 -- -- 79
2017-10-02 05:00:00 15.4 8 Noroeste 13 Oeste 0 -- -- 81
2017-10-02 04:00:00 15.3 6 Noroeste 16 Noroeste 0 -- -- 82
2017-10-02 03:00:00 15.1 6 Noroeste 28 Noroeste 0 -- -- 83
2017-10-02 02:00:00 15.7 19 Noroeste 27 Noroeste 0 -- -- 82
2017-10-02 01:00:00 16.4 18 Noroeste 29 Noroeste 0 -- -- 79
2017-10-02 00:00:00 16.7 18 Noroeste 35 Noroeste 0 -- -- 79
2017-10-01 23:00:00 17.1 30 Noroeste 38 Noroeste 0 -- -- 77
2017-10-01 22:00:00 16.7 19 Noroeste 35 Noroeste 0 -- -- 80
2017-10-01 21:00:00 17 31 Noroeste 41 Noroeste 0 -- -- 78
2017-10-01 20:00:00 17.2 24 Noroeste 37 Noroeste 0 -- -- 77
2017-10-01 19:00:00 18.2 25 Noroeste 41 Noroeste 0 -- -- 74
2017-10-01 18:00:00 18.5 32 Noroeste 46 Noroeste 0 -- -- 74
2017-10-01 17:00:00 18.4 23 Noroeste 37 Noroeste 0 -- -- 73
2017-10-01 16:00:00 18.7 26 Noroeste 41 Noroeste 0 -- -- 72
2017-10-01 15:00:00 18.7 26 Noroeste 40 Oeste 0 -- -- 70
2017-10-01 14:00:00 18.6 25 Noroeste 40 Noroeste 0 -- -- 69
2017-10-01 13:00:00 17.5 21 Noroeste 32 Noroeste 0 -- -- 70
2017-10-01 12:00:00 15.7 5 Norte 12 Norte 0 -- -- 72
2017-10-01 11:00:00 13.9 3 Sudeste 5 Sudeste 0 -- -- 75
2017-10-01 10:00:00 12.9 2 Nordeste 7 Noroeste 0 -- -- 79
2017-10-01 09:00:00 11.5 3 Sudoeste 7 Sudoeste 0 -- -- 89
2017-10-01 08:00:00 11.2 4 Sudeste 6 Sudeste 0 -- -- 90
2017-10-01 07:00:00 11.2 3 Sur 6 Sudoeste 0 -- -- 90
2017-10-01 06:00:00 11.6 2 Este 7 Noroeste 0 -- -- 89
2017-10-01 05:00:00 12.3 0 Calma 6 Sudoeste 0 -- -- 85
2017-10-01 04:00:00 12.6 3 Sudoeste 8 Sudoeste 0 -- -- 83
2017-10-01 03:00:00 13 2 Sudeste 6 Norte 0 -- -- 82
2017-10-01 02:00:00 13.2 4 Nordeste 8 Este 0 -- -- 80
2017-10-01 01:00:00 13.3 4 Este 10 Nordeste 0 -- -- 81
2017-10-01 00:00:00 13.9 6 Nordeste 10 Noroeste 0 -- -- 81
2017-09-30 23:00:00 14 3 Sudoeste 6 Sudoeste 0 -- -- 88
2017-09-30 22:00:00 14.5 3 Sudeste 9 Noroeste 0 -- -- 90
2017-09-30 21:00:00 15.1 6 Noroeste 14 Noroeste 0 -- -- 87
2017-09-30 20:00:00 16.3 11 Noroeste 16 Oeste 0 -- -- 84
2017-09-30 19:00:00 17.5 13 Noroeste 20 Norte 0 -- -- 78
2017-09-30 18:00:00 18 13 Norte 21 Norte 0 -- -- 79
2017-09-30 17:00:00 19.1 10 Norte 19 Noroeste 0 -- -- 75
2017-09-30 16:00:00 19.1 7 Norte 17 Noroeste 0 -- -- 78
2017-09-30 15:00:00 19 6 Norte 17 Sur 0 -- -- 79
2017-09-30 14:00:00 17 13 Sur 23 Sur 0 -- -- 85
2017-09-30 13:00:00 15.6 4 Este 9 Este 0.2 -- -- 93
2017-09-30 12:00:00 14.6 4 Sudeste 6 Este 1 -- -- 92
2017-09-30 11:00:00 14.6 3 Este 9 Sudeste 0.2 -- -- 91
2017-09-30 10:00:00 13.9 5 Oeste 18 Noroeste 0.8 -- -- 90
2017-09-30 09:00:00 13.7 14 Noroeste 20 Noroeste 0 -- -- 87
2017-09-30 08:00:00 14 6 Norte 9 Norte 0 -- -- 83
2017-09-30 07:00:00 13.9 3 Sur 6 Sur 0 -- -- 84
2017-09-30 06:00:00 13.8 3 Oeste 5 Sur 0 -- -- 84
2017-09-30 05:00:00 14 3 Norte 7 Sur 0 -- -- 82
2017-09-30 04:00:00 14.2 2 Oeste 9 Noroeste 0 -- -- 81
2017-09-30 03:00:00 14.6 3 Noroeste 11 Nordeste 0 -- -- 79
2017-09-30 02:00:00 15.3 5 Noroeste 7 Noroeste 0 -- -- 76
2017-09-30 01:00:00 16.5 2 Sur 4 Sur 0 -- -- 71
2017-09-30 00:00:00 16.7 3 Norte 5 Oeste 0 -- -- 70
2017-09-29 23:00:00 17.8 3 Noroeste 8 Sudoeste 0 -- -- 66
2017-09-29 22:00:00 19.3 6 Sudoeste 9 Sudoeste 0 -- -- 58
2017-09-29 21:00:00 19.6 5 Oeste 9 Sur 0 -- -- 60
2017-09-29 20:00:00 21.3 2 Este 17 Noroeste 0 -- -- 60
2017-09-29 19:00:00 24.6 13 Noroeste 22 Noroeste 0 -- -- 47
2017-09-29 18:00:00 26.1 16 Noroeste 22 Noroeste 0 -- -- 43
2017-09-29 17:00:00 26.6 11 Oeste 30 Oeste 0 -- -- 43
2017-09-29 16:00:00 26.1 3 Nordeste 18 Noroeste 0 -- -- 49
2017-09-29 15:00:00 25.5 8 Noroeste 17 Noroeste 0 -- -- 49
2017-09-29 14:00:00 24.6 7 Noroeste 12 Noroeste 0 -- -- 49
2017-09-29 13:00:00 23.3 5 Sudeste 13 Sudeste 0 -- -- 50
2017-09-29 12:00:00 22.3 8 Sudeste 17 Sudeste 0 -- -- 56
2017-09-29 11:00:00 18.3 4 Norte 9 Noroeste 0 -- -- 72
2017-09-29 10:00:00 15.3 4 Nordeste 8 Este 0 -- -- 80
2017-09-29 09:00:00 12.4 2 Nordeste 5 Norte 0 -- -- 88
2017-09-29 08:00:00 11.3 2 Oeste 6 Este 0 -- -- 91
2017-09-29 07:00:00 11.8 0 Calma 9 Sur 0 -- -- 88
2017-09-29 06:00:00 12.4 5 Noroeste 8 Sur 0 -- -- 89
2017-09-29 05:00:00 12.8 3 Noroeste 10 Norte 0 -- -- 86
2017-09-29 04:00:00 14 7 Noroeste 10 Sudeste 0 -- -- 81
2017-09-29 03:00:00 15 4 Norte 13 Nordeste 0 -- -- 78
2017-09-29 02:00:00 16.7 6 Sur 18 Este 0 -- -- 75
2017-09-29 01:00:00 17.5 11 Este 20 Este 0 -- -- 70
2017-09-29 00:00:00 17.9 8 Sudeste 17 Sur 0 -- -- 68
2017-09-28 23:00:00 17.6 10 Sudeste 23 Sur 0 -- -- 69
2017-09-28 22:00:00 19.9 17 Sur 26 Sur 0 -- -- 61
2017-09-28 21:00:00 20.7 18 Sur 26 Sur 0 -- -- 58
2017-09-28 20:00:00 21.6 16 Sur 22 Sur 0 -- -- 53
2017-09-28 19:00:00 23.7 13 Sur 19 Sur 0 -- -- 47
2017-09-28 18:00:00 25 10 Sur 17 Sur 0 -- -- 42
2017-09-28 17:00:00 25.2 6 Sudeste 17 Sudoeste 0 -- -- 43
2017-09-28 16:00:00 25.4 6 Sur 18 Sur 0 -- -- 41
2017-09-28 15:00:00 25.1 11 Sudeste 21 Sudeste 0 -- -- 45
2017-09-28 14:00:00 24.3 12 Sudeste 21 Sudeste 0 -- -- 49
2017-09-28 13:00:00 23 9 Sur 21 Sudoeste 0 -- -- 54
2017-09-28 12:00:00 20.7 15 Sur 33 Sur 0 -- -- 60
2017-09-28 11:00:00 19.4 11 Sudeste 24 Sudeste 0 -- -- 68
2017-09-28 10:00:00 15.3 5 Este 9 Este 0 -- -- 78
2017-09-28 09:00:00 13.7 5 Sudeste 12 Este 0 -- -- 82
2017-09-28 08:00:00 11.2 3 Este 8 Sur 0 -- -- 86
2017-09-28 07:00:00 12.6 3 Sudoeste 9 Este 0 -- -- 82
2017-09-28 06:00:00 13 4 Este 23 Sudeste 0 -- -- 81
2017-09-28 05:00:00 14.2 14 Sudeste 22 Sudeste 0 -- -- 78
2017-09-28 04:00:00 14 8 Sudeste 14 Sudeste 0 -- -- 76
2017-09-28 03:00:00 15.4 12 Sudeste 24 Este 0 -- -- 73
2017-09-28 02:00:00 15.9 19 Sudeste 26 Sudeste 0 -- -- 73
2017-09-28 01:00:00 15.1 5 Nordeste 18 Este 0 -- -- 72
2017-09-28 00:00:00 16.5 9 Sudeste 14 Este 0 -- -- 70
2017-09-27 23:00:00 17.4 3 Este 15 Sudoeste 0 -- -- 65
2017-09-27 22:00:00 17.9 6 Sur 17 Sudoeste 0 -- -- 63
2017-09-27 21:00:00 18.3 13 Sudoeste 18 Sudoeste 0 -- -- 61
2017-09-27 20:00:00 19.8 13 Sur 19 Sudoeste 0 -- -- 56
2017-09-27 19:00:00 22.7 10 Sur 16 Sur 0 -- -- 47
2017-09-27 18:00:00 23.4 11 Sur 19 Sur 0 -- -- 44
2017-09-27 17:00:00 24.2 5 Sur 20 Sudoeste 0 -- -- 43
2017-09-27 16:00:00 23.3 9 Sur 19 Sur 0 -- -- 46
2017-09-27 15:00:00 22.9 10 Sur 22 Sur 0 -- -- 48
2017-09-27 14:00:00 21.8 11 Sur 27 Sur 0 -- -- 52
2017-09-27 13:00:00 20.4 16 Sur 24 Sur 0 -- -- 59
2017-09-27 12:00:00 18.7 13 Sur 24 Sur 0 -- -- 66
2017-09-27 11:00:00 17 17 Sur 24 Sur 0 -- -- 70
2017-09-27 10:00:00 15.6 16 Sur 24 Sur 0 -- -- 76
2017-09-27 09:00:00 13.3 14 Sudeste 23 Sudeste 0 -- -- 78
2017-09-27 08:00:00 10.6 4 Este 14 Sur 0 -- -- 83
2017-09-27 07:00:00 10 4 Este 16 Sudeste 0 -- -- 86
2017-09-27 06:00:00 12.1 11 Sur 18 Sur 0 -- -- 79
2017-09-27 05:00:00 10.6 3 Este 9 Sudeste 0 -- -- 81
2017-09-27 04:00:00 11.5 0 Calma 6 Norte 0 -- -- 78
2017-09-27 03:00:00 11.5 3 Noroeste 5 Oeste 0 -- -- 78
2017-09-27 02:00:00 11.7 3 Noroeste 6 Noroeste 0 -- -- 77
2017-09-27 01:00:00 12.3 2 Oeste 6 Sudeste 0 -- -- 75
2017-09-27 00:00:00 13.5 3 Este 4 Sudoeste 0 -- -- 69
2017-09-26 23:00:00 14.4 4 Sudoeste 9 Sudoeste 0 -- -- 66
2017-09-26 22:00:00 15 4 Oeste 10 Sudoeste 0 -- -- 63
2017-09-26 21:00:00 15.8 3 Sudeste 15 Oeste 0 -- -- 60
2017-09-26 20:00:00 16.8 10 Oeste 19 Noroeste 0 -- -- 59
2017-09-26 19:00:00 21 12 Noroeste 20 Noroeste 0 -- -- 46
2017-09-26 18:00:00 22.1 11 Norte 18 Norte 0 -- -- 44
2017-09-26 17:00:00 21.8 7 Nordeste 17 Noroeste 0 -- -- 46
2017-09-26 16:00:00 22.2 6 Norte 21 Noroeste 0 -- -- 48
2017-09-26 15:00:00 21.3 6 Norte 14 Noroeste 0 -- -- 46
2017-09-26 14:00:00 20.4 10 Noroeste 18 Noroeste 0 -- -- 49
2017-09-26 13:00:00 18.8 5 Noroeste 11 Nordeste 0 -- -- 51
2017-09-26 12:00:00 16.6 3 Noroeste 11 Noroeste 0 -- -- 59
2017-09-26 11:00:00 15.4 4 Noroeste 9 Sudeste 0 -- -- 63
2017-09-26 10:00:00 12.9 0 Calma 5 Este 0 -- -- 78
2017-09-26 09:00:00 11.5 2 Nordeste 4 Oeste 0 -- -- 82
2017-09-26 08:00:00 9.8 5 Sudoeste 6 Sudoeste 0 -- -- 86
2017-09-26 07:00:00 10.4 0 Calma 6 Sur 0 -- -- 85
2017-09-26 06:00:00 10.4 4 Sudeste 5 Este 0 -- -- 84
2017-09-26 05:00:00 10.7 2 Noroeste 5 Sudoeste 0 -- -- 82
2017-09-26 04:00:00 11.9 3 Sudoeste 6 Sudoeste 0 -- -- 79
2017-09-26 03:00:00 12.5 3 Sur 9 Sudeste 0 -- -- 77
2017-09-26 02:00:00 13.1 2 Norte 13 Noroeste 0 -- -- 75
2017-09-26 01:00:00 13.4 8 Oeste 25 Noroeste 0 -- -- 74
2017-09-26 00:00:00 14.2 15 Noroeste 26 Noroeste 0 -- -- 72
2017-09-25 23:00:00 14.3 11 Noroeste 35 Noroeste 0 -- -- 72
2017-09-25 22:00:00 14.8 23 Noroeste 34 Oeste 0 -- -- 72
2017-09-25 21:00:00 15.1 23 Oeste 34 Oeste 0 -- -- 69
2017-09-25 20:00:00 15.7 26 Noroeste 48 Noroeste 0 -- -- 68
2017-09-25 19:00:00 17.2 28 Noroeste 49 Noroeste 0 -- -- 62
2017-09-25 18:00:00 19.3 34 Noroeste 50 Noroeste 0 -- -- 54
2017-09-25 17:00:00 20.5 32 Noroeste 46 Noroeste 0 -- -- 52
2017-09-25 16:00:00 21.8 25 Noroeste 38 Noroeste 0 -- -- 52
2017-09-25 15:00:00 22.4 21 Noroeste 32 Noroeste 0 -- -- 48
2017-09-25 14:00:00 21.7 19 Noroeste 28 Noroeste 0 -- -- 52
2017-09-25 13:00:00 21.1 17 Noroeste 28 Noroeste 0 -- -- 55
2017-09-25 12:00:00 19.6 14 Noroeste 22 Noroeste 0 -- -- 61
2017-09-25 11:00:00 17.8 3 Noroeste 9 Nordeste 0 -- -- 71
2017-09-25 10:00:00 15.3 5 Sudeste 7 Oeste 0 -- -- 82
2017-09-25 09:00:00 13.8 4 Sudeste 10 Oeste 0 -- -- 86
2017-09-25 08:00:00 13.3 6 Oeste 9 Noroeste 0 -- -- 85
2017-09-25 07:00:00 13.7 5 Sudoeste 10 Nordeste 0 -- -- 82
2017-09-25 06:00:00 14.7 3 Oeste 13 Sur 0 -- -- 75
2017-09-25 05:00:00 14.2 8 Sudeste 12 Este 0 -- -- 76
2017-09-25 04:00:00 14.3 5 Noroeste 18 Noroeste 0 -- -- 71
2017-09-25 03:00:00 15.4 3 Sur 17 Sur 0 -- -- 69
2017-09-25 02:00:00 15.2 3 Sudeste 5 Sudeste 0 -- -- 68
2017-09-25 01:00:00 15.8 4 Sudoeste 9 Norte 0 -- -- 64
2017-09-25 00:00:00 16.9 4 Oeste 6 Noroeste 0 -- -- 59
2017-09-24 23:00:00 17.2 4 Oeste 6 Noroeste 0 -- -- 61
2017-09-24 22:00:00 18.5 5 Noroeste 12 Sudoeste 0 -- -- 57
2017-09-24 21:00:00 20.5 3 Sudoeste 5 Oeste 0 -- -- 46
2017-09-24 20:00:00 21.3 5 Sudoeste 7 Sudoeste 0 -- -- 47
2017-09-24 19:00:00 24.4 4 Sudoeste 14 Noroeste 0 -- -- 46
2017-09-24 18:00:00 26.4 7 Norte 19 Noroeste 0 -- -- 41
2017-09-24 17:00:00 26.8 13 Noroeste 22 Norte 0 -- -- 36
2017-09-24 16:00:00 26.2 7 Norte 14 Noroeste 0 -- -- 44
2017-09-24 15:00:00 25.6 6 Norte 13 Nordeste 0 -- -- 44
2017-09-24 14:00:00 24.1 3 Norte 10 Noroeste 0 -- -- 46
2017-09-24 13:00:00 22 3 Norte 9 Noroeste 0 -- -- 56
2017-09-24 12:00:00 19.2 4 Noroeste 8 Noroeste 0 -- -- 68
2017-09-24 11:00:00 16 3 Noroeste 5 Noroeste 0 -- -- 77
2017-09-24 10:00:00 13.3 2 Noroeste 5 Norte 0 -- -- 89
2017-09-24 09:00:00 11.5 0 Calma 3 Sudoeste 0 -- -- 94
2017-09-24 08:00:00 10.7 0 Calma 4 Este 0 -- -- 94
2017-09-24 07:00:00 11.2 0 Calma 4 Sudeste 0 -- -- 93
2017-09-24 06:00:00 11.2 2 Este 4 Nordeste 0 -- -- 93
2017-09-24 05:00:00 12 3 Sudoeste 4 Oeste 0 -- -- 92
2017-09-24 04:00:00 12.3 3 Nordeste 5 Sudeste 0 -- -- 89
2017-09-24 03:00:00 13 2 Noroeste -- -- 0 -- -- 87
2017-09-24 02:00:00 13.6 2 Oeste 4 Noroeste 0 -- -- 85
2017-09-24 01:00:00 14.6 0 Calma 8 Sudoeste 0 -- -- 80
2017-09-24 00:00:00 15.1 4 Noroeste 5 Oeste 0 -- -- 80
2017-09-23 23:00:00 16.2 2 Sudeste 7 Sudoeste 0 -- -- 74
2017-09-23 22:00:00 17 4 Oeste 5 Oeste 0 -- -- 70
2017-09-23 21:00:00 18.2 4 Noroeste 9 Sudoeste 0 -- -- 66
2017-09-23 20:00:00 19.6 6 Sudoeste 8 Sudoeste 0 -- -- 61
2017-09-23 19:00:00 23.5 3 Sudoeste 9 Este 0 -- -- 53
2017-09-23 18:00:00 24.2 5 Noroeste 9 Norte 0 -- -- 47
2017-09-23 17:00:00 23.1 4 Oeste 16 Sudeste 0 -- -- 53
2017-09-23 16:00:00 23.5 8 Sudeste 18 Sudeste 0 -- -- 49
2017-09-23 15:00:00 22.7 11 Sudeste 19 Sur 0 -- -- 49
2017-09-23 14:00:00 21.6 11 Sudoeste 31 Sur 0 -- -- 56
2017-09-23 13:00:00 20 20 Sur 35 Sur 0 -- -- 58
2017-09-23 12:00:00 18.5 19 Sur 32 Sur 0 -- -- 65
2017-09-23 11:00:00 16.5 11 Sudeste 22 Sur 0 -- -- 71
2017-09-23 10:00:00 12 5 Nordeste 10 Nordeste 0 -- -- 95
2017-09-23 09:00:00 9.9 4 Sudeste 9 Sudeste 0 -- -- 98
2017-09-23 08:00:00 8.2 4 Oeste 7 Sudoeste 0 -- -- 97
2017-09-23 07:00:00 9 2 Noroeste 4 Noroeste 0 -- -- 97
2017-09-23 06:00:00 9.4 4 Noroeste 6 Norte 0 -- -- 97
2017-09-23 05:00:00 9.5 2 Oeste 5 Noroeste 0 -- -- 97
2017-09-23 04:00:00 10.1 3 Oeste 5 Norte 0 -- -- 96
2017-09-23 03:00:00 10.7 0 Calma 4 Norte 0 -- -- 94
2017-09-23 02:00:00 11.1 2 Este 8 Noroeste 0 -- -- 94
2017-09-23 01:00:00 11.6 3 Norte 7 Oeste 0 -- -- 93
2017-09-23 00:00:00 12.1 0 Calma 6 Noroeste 0 -- -- 92
2017-09-22 23:00:00 13 5 Sudoeste 8 Sudoeste 0 -- -- 87
2017-09-22 22:00:00 13.1 5 Sudoeste 8 Sudoeste 0 -- -- 87
2017-09-22 21:00:00 13.7 5 Sudoeste 9 Sudoeste 0 -- -- 85
2017-09-22 20:00:00 15 2 Oeste 8 Este 0 -- -- 84
2017-09-22 19:00:00 15.8 5 Este 12 Nordeste 0.2 -- -- 79
2017-09-22 18:00:00 16.9 9 Nordeste 26 Sudeste 0 -- -- 76
2017-09-22 17:00:00 16.6 21 Sudeste 26 Sudeste 0 -- -- 74
2017-09-22 16:00:00 15 10 Sur 18 Sur 0 -- -- 82
2017-09-22 15:00:00 13.9 9 Oeste 34 Sur 0 -- -- 87
2017-09-22 14:00:00 13.2 27 Sudeste 42 Sudeste 2.4 -- -- 88
2017-09-22 13:00:00 12.6 13 Sur 18 Sudeste 5.6 -- -- 91
2017-09-22 12:00:00 12.5 7 Oeste 17 Sudoeste 5.2 -- -- 91
2017-09-22 11:00:00 12.9 4 Sur 9 Oeste 0.6 -- -- 90
2017-09-22 10:00:00 12.5 4 Oeste 8 Nordeste 0.2 -- -- 92
2017-09-22 09:00:00 12.3 6 Sudeste 22 Noroeste 2.2 -- -- 93
2017-09-22 08:00:00 11.9 5 Sudeste 10 Noroeste 0.2 -- -- 91
2017-09-22 07:00:00 11.7 3 Sudoeste 9 Noroeste 0 -- -- 90
2017-09-22 06:00:00 12.1 6 Noroeste 13 Noroeste 0.2 -- -- 88
2017-09-22 05:00:00 12.4 0 Calma 4 Sudeste 0 -- -- 83
2017-09-22 04:00:00 12.8 4 Nordeste 7 Noroeste 0 -- -- 81
2017-09-22 03:00:00 13.5 2 Norte 7 Oeste 0 -- -- 78
2017-09-22 02:00:00 13.9 3 Norte 8 Sudoeste 0 -- -- 75
2017-09-22 01:00:00 15 6 Sudoeste 8 Sudoeste 0 -- -- 72
2017-09-22 00:00:00 15.3 6 Este 11 Sudeste 0 -- -- 71
2017-09-21 23:00:00 16.3 9 Sudeste 12 Sudeste 0 -- -- 63
2017-09-21 22:00:00 18.3 4 Este 11 Nordeste 0 -- -- 50
2017-09-21 21:00:00 19.8 5 Nordeste 10 Sudoeste 0 -- -- 45
2017-09-21 20:00:00 20.4 8 Sudoeste 10 Sudoeste 0 -- -- 45
2017-09-21 19:00:00 24.4 4 Norte 18 Nordeste 0 -- -- 36
2017-09-21 18:00:00 26 3 Nordeste 11 Sudoeste 0 -- -- 31
2017-09-21 17:00:00 26.4 6 Noroeste 17 Noroeste 0 -- -- 29
2017-09-21 16:00:00 25.8 9 Norte 20 Noroeste 0 -- -- 30
2017-09-21 15:00:00 25.4 5 Oeste 12 Norte 0 -- -- 28
2017-09-21 14:00:00 23.7 8 Norte 18 Noroeste 0 -- -- 29
2017-09-21 13:00:00 23.2 6 Sudeste 15 Sudeste 0 -- -- 31
2017-09-21 12:00:00 21.4 11 Sudeste 17 Sudeste 0 -- -- 35
2017-09-21 11:00:00 16.4 3 Nordeste 8 Nordeste 0 -- -- 46
2017-09-21 10:00:00 12 3 Noroeste 5 Este 0 -- -- 56
2017-09-21 09:00:00 9.6 0 Calma 4 Este 0 -- -- 64
2017-09-21 08:00:00 8.2 0 Calma 5 Sudoeste 0 -- -- 64
2017-09-21 07:00:00 8.4 0 Calma 4 Sudoeste 0 -- -- 63
2017-09-21 06:00:00 9.1 0 Calma 4 Sudoeste 0 -- -- 59
2017-09-21 05:00:00 9.1 3 Oeste 4 Oeste 0 -- -- 58
2017-09-21 04:00:00 9.9 2 Nordeste 5 Este 0 -- -- 56
2017-09-21 03:00:00 11.1 2 Sur 6 Oeste 0 -- -- 53
2017-09-21 02:00:00 11.9 3 Noroeste 9 Noroeste 0 -- -- 49
2017-09-21 01:00:00 13.8 3 Norte 14 Sudeste 0 -- -- 41
2017-09-21 00:00:00 14.2 5 Noroeste 12 Sudeste 0 -- -- 39
2017-09-20 23:00:00 15.2 4 Sudoeste 10 Sur 0 -- -- 36
2017-09-20 22:00:00 16.6 9 Sudoeste 10 Sudoeste 0 -- -- 33
2017-09-20 21:00:00 17.4 2 Noroeste 9 Oeste 0 -- -- 30
2017-09-20 20:00:00 18.5 5 Sudoeste 10 Oeste 0 -- -- 31
2017-09-20 19:00:00 23.2 7 Oeste 20 Noroeste 0 -- -- 23
2017-09-20 18:00:00 23.9 9 Oeste 19 Noroeste 0 -- -- 22
2017-09-20 17:00:00 23.3 12 Noroeste 26 Oeste 0 -- -- 21
2017-09-20 16:00:00 23.1 12 Noroeste 23 Noroeste 0 -- -- 22
2017-09-20 15:00:00 21.5 8 Norte 14 Noroeste 0 -- -- 32
2017-09-20 14:00:00 20.2 6 Nordeste 15 Oeste 0 -- -- 34
2017-09-20 13:00:00 17.7 4 Norte 11 Norte 0 -- -- 37
2017-09-20 12:00:00 15.4 5 Nordeste 10 Noroeste 0 -- -- 50
2017-09-20 11:00:00 12 3 Este 8 Nordeste 0 -- -- 63
2017-09-20 10:00:00 8.2 3 Norte 6 Este 0 -- -- 73
2017-09-20 09:00:00 6.2 0 Calma 5 Este 0 -- -- 85
2017-09-20 08:00:00 4.3 2 Oeste 4 Oeste 0 -- -- 84
2017-09-20 07:00:00 4.7 2 Nordeste 4 Norte 0 -- -- 84
2017-09-20 06:00:00 5.7 0 Calma 5 Sudoeste 0 -- -- 79
2017-09-20 05:00:00 6.4 2 Noroeste 8 Sudoeste 0 -- -- 78
2017-09-20 04:00:00 7.3 2 Nordeste 10 Sudoeste 0 -- -- 73
2017-09-20 03:00:00 8.2 7 Sudoeste 9 Sudoeste 0 -- -- 71
2017-09-20 02:00:00 8.9 5 Sudoeste 8 Sudeste 0 -- -- 67
2017-09-20 01:00:00 9.5 4 Sur 9 Sur 0 -- -- 65
2017-09-20 00:00:00 9.9 4 Sur 8 Sur 0 -- -- 62